Time;durP1;ratioP1;P1;durP2;ratioP2;P2;SDS_P1;SDS_P2;PMS_P1;PMS_P2;Temp;Humidity;BMP_temperature;BMP_pressure;BME280_temperature;BME280_humidity;BME280_pressure;Samples;Min_cycle;Max_cycle;Signal;HPM_P1;HPM_P2
2021/08/19 00:01:06;;;;;;;3.60;2.50;;;;;;;18.36;66.51;100256.44;4969285;28;20101;-79
2021/08/19 00:03:31;;;;;;;3.95;2.38;;;;;;;18.36;66.57;100256.44;4965515;28;20043;-79
2021/08/19 00:05:56;;;;;;;4.93;2.90;;;;;;;18.31;66.63;100253.13;4951353;28;20115;-79
2021/08/19 00:08:22;;;;;;;4.45;2.50;;;;;;;18.34;66.41;100255.69;4966095;28;20043;-79
2021/08/19 00:10:47;;;;;;;3.55;2.00;;;;;;;18.36;66.54;100255.59;4951097;28;20450;-80
2021/08/19 00:13:12;;;;;;;3.65;2.38;;;;;;;18.36;66.52;100253.78;4966300;28;20226;-80
2021/08/19 00:15:38;;;;;;;3.78;2.22;;;;;;;18.37;66.94;100254.69;4971689;28;20061;-79
2021/08/19 00:18:03;;;;;;;6.03;2.42;;;;;;;18.34;66.88;100261.03;4955476;28;20493;-79
2021/08/19 00:20:31;;;;;;;4.95;2.00;;;;;;;18.37;67.13;100263.56;4950397;28;20031;-79
2021/08/19 00:22:58;;;;;;;3.90;2.30;;;;;;;18.31;67.28;100261.16;4955973;28;20035;-79
2021/08/19 00:25:24;;;;;;;3.70;2.33;;;;;;;18.36;66.89;100264.47;4979496;28;20042;-79
2021/08/19 00:27:50;;;;;;;3.47;1.98;;;;;;;18.32;67.27;100265.56;4948033;29;20058;-80
2021/08/19 00:30:15;;;;;;;2.92;1.98;;;;;;;18.34;67.08;100265.50;4968610;28;20062;-79
2021/08/19 00:32:40;;;;;;;3.40;1.90;;;;;;;18.31;67.24;100262.94;4965102;28;20031;-80
2021/08/19 00:35:07;;;;;;;3.20;1.98;;;;;;;18.28;67.33;100261.25;4968821;28;20049;-79
2021/08/19 00:37:33;;;;;;;3.63;1.40;;;;;;;18.28;67.08;100255.91;4965698;28;20060;-79
2021/08/19 00:39:58;;;;;;;2.88;1.70;;;;;;;18.23;67.79;100255.25;4934125;28;20027;-80
2021/08/19 00:42:23;;;;;;;3.65;2.00;;;;;;;18.15;67.85;100246.69;4966559;28;20067;-80
2021/08/19 00:44:49;;;;;;;2.72;1.48;;;;;;;18.14;67.66;100250.31;4983820;28;20122;-79
2021/08/19 00:47:14;;;;;;;3.10;1.80;;;;;;;18.15;67.96;100252.03;4974497;28;20083;-79
2021/08/19 00:49:41;;;;;;;3.45;2.17;;;;;;;18.12;67.79;100257.50;4970965;28;20041;-80
2021/08/19 00:52:06;;;;;;;2.92;1.73;;;;;;;18.09;68.07;100246.94;4964258;28;20079;-79
2021/08/19 00:54:35;;;;;;;2.60;1.60;;;;;;;18.07;68.28;100254.16;4968262;28;20041;-80
2021/08/19 00:57:02;;;;;;;3.50;1.45;;;;;;;18.07;68.20;100252.34;4947488;28;20043;-80
2021/08/19 00:59:35;;;;;;;2.28;1.38;;;;;;;18.02;68.36;100245.47;4967929;28;20039;-79
2021/08/19 01:02:06;;;;;;;3.50;1.75;;;;;;;18.04;68.55;100254.28;4952906;28;20041;-79
2021/08/19 01:04:35;;;;;;;2.88;1.77;;;;;;;18.03;68.90;100263.25;4972804;28;20509;-79
2021/08/19 01:07:01;;;;;;;2.33;1.48;;;;;;;18.06;68.75;100257.78;4977730;28;20478;-79
2021/08/19 01:09:28;;;;;;;2.70;1.58;;;;;;;18.05;68.19;100261.34;4952944;28;20121;-79
2021/08/19 01:11:54;;;;;;;2.25;1.50;;;;;;;18.02;68.58;100261.47;4974414;28;20122;-79
2021/08/19 01:14:19;;;;;;;3.63;1.90;;;;;;;18.03;68.55;100260.56;4967375;28;20685;-79
2021/08/19 01:16:45;;;;;;;2.80;1.73;;;;;;;18.00;68.90;100271.34;4975886;28;20027;-79
2021/08/19 01:19:20;;;;;;;2.78;1.80;;;;;;;17.95;69.01;100268.88;4972648;28;20515;-79
2021/08/19 01:21:47;;;;;;;3.00;1.95;;;;;;;17.98;68.71;100268.75;4976087;28;20417;-80
2021/08/19 01:24:13;;;;;;;2.78;1.85;;;;;;;18.00;68.41;100271.34;4971600;28;20042;-80
2021/08/19 01:26:39;;;;;;;4.47;2.20;;;;;;;17.96;68.65;100267.94;4964016;28;20035;-80
2021/08/19 01:29:05;;;;;;;3.05;1.85;;;;;;;17.95;68.27;100259.06;4967700;28;20034;-79
2021/08/19 01:31:32;;;;;;;3.90;2.22;;;;;;;17.96;68.26;100258.13;4964943;28;20462;-80
2021/08/19 01:33:58;;;;;;;3.65;2.17;;;;;;;17.94;68.53;100259.97;4966467;28;20039;-79
2021/08/19 01:36:23;;;;;;;3.70;1.90;;;;;;;17.91;68.82;100260.13;4965627;28;20054;-80
2021/08/19 01:38:50;;;;;;;3.60;2.00;;;;;;;17.91;68.25;100254.78;4965646;28;20045;-80
2021/08/19 01:41:16;;;;;;;3.35;2.38;;;;;;;17.93;68.05;100247.59;4949178;28;20098;-79
2021/08/19 01:43:42;;;;;;;4.07;2.55;;;;;;;17.94;68.22;100253.78;4964752;28;20059;-80
2021/08/19 01:46:09;;;;;;;3.20;2.15;;;;;;;17.95;68.52;100255.53;4966722;28;20035;-80
2021/08/19 01:48:35;;;;;;;4.10;2.50;;;;;;;17.95;68.46;100255.53;4946913;29;20035;-79
2021/08/19 01:51:02;;;;;;;3.80;2.17;;;;;;;17.92;68.19;100248.53;4966331;28;20066;-80
2021/08/19 01:53:27;;;;;;;3.60;2.20;;;;;;;17.91;68.08;100246.78;4964162;28;20458;-79
2021/08/19 01:55:54;;;;;;;4.20;2.63;;;;;;;17.85;68.42;100249.69;4966298;28;20032;-79
2021/08/19 01:58:20;;;;;;;3.90;2.45;;;;;;;17.79;68.81;100254.38;4965411;28;20043;-80
2021/08/19 02:00:46;;;;;;;5.05;2.20;;;;;;;17.69;68.92;100254.75;4949355;28;20497;-80
2021/08/19 02:03:11;;;;;;;3.65;2.40;;;;;;;17.66;69.00;100251.34;4945627;28;20043;-78
2021/08/19 02:05:38;;;;;;;3.70;2.40;;;;;;;17.66;69.07;100256.69;4965684;28;20046;-80
2021/08/19 02:08:05;;;;;;;2.90;2.08;;;;;;;17.67;69.07;100255.75;4964485;28;20070;-80
2021/08/19 02:10:31;;;;;;;4.68;2.50;;;;;;;17.64;69.57;100247.88;4965465;28;20039;-79
2021/08/19 02:12:56;;;;;;;3.97;2.40;;;;;;;17.67;69.55;100256.59;4963655;28;20043;-80
2021/08/19 02:15:21;;;;;;;3.60;2.33;;;;;;;17.68;69.28;100249.47;4966553;28;20078;-79
2021/08/19 02:17:47;;;;;;;4.82;2.55;;;;;;;17.69;69.44;100248.56;4963301;28;20082;-79
2021/08/19 02:20:12;;;;;;;5.97;2.70;;;;;;;17.60;69.69;100246.25;4966777;28;20165;-79
2021/08/19 02:22:37;;;;;;;6.88;3.20;;;;;;;17.63;69.37;100248.78;4963910;28;20134;-79
2021/08/19 02:25:03;;;;;;;5.05;3.03;;;;;;;17.61;69.27;100240.00;4965707;28;20132;-79
2021/08/19 02:27:29;;;;;;;4.00;3.00;;;;;;;17.61;69.17;100240.84;4943900;29;20099;-79
2021/08/19 02:29:55;;;;;;;4.72;2.85;;;;;;;17.64;69.09;100234.53;4964791;28;20541;-79
2021/08/19 02:32:20;;;;;;;4.22;2.95;;;;;;;17.63;68.82;100239.00;4965061;28;20035;-80
2021/08/19 02:34:45;;;;;;;4.90;3.22;;;;;;;17.62;68.84;100231.03;4948224;28;20064;-79
2021/08/19 02:37:11;;;;;;;4.65;3.42;;;;;;;17.62;69.10;100228.38;4947099;28;20130;-79
2021/08/19 02:39:36;;;;;;;4.65;3.10;;;;;;;17.61;69.34;100230.19;4947896;28;20039;-79
2021/08/19 02:42:01;;;;;;;3.97;3.00;;;;;;;17.62;69.21;100229.25;4963690;28;20474;-79
2021/08/19 02:44:27;;;;;;;4.35;3.20;;;;;;;17.59;69.29;100231.16;4965963;28;20098;-79
2021/08/19 02:46:52;;;;;;;5.63;2.97;;;;;;;17.55;69.05;100226.88;4946100;29;20032;-80
2021/08/19 02:49:17;;;;;;;4.15;2.67;;;;;;;17.52;69.03;100228.72;4948292;28;20039;-79
2021/08/19 02:51:43;;;;;;;5.00;3.60;;;;;;;17.49;69.24;100225.31;4942351;29;20052;-80
2021/08/19 02:54:08;;;;;;;6.78;3.63;;;;;;;17.47;69.45;100228.03;4951149;28;20062;-80
2021/08/19 02:56:35;;;;;;;6.03;3.53;;;;;;;17.44;69.64;100220.16;4948452;28;20081;-80
2021/08/19 02:59:00;;;;;;;5.00;3.88;;;;;;;17.49;69.55;100226.19;4971483;28;20061;-80
2021/08/19 03:01:26;;;;;;;6.15;3.78;;;;;;;17.43;69.64;100229.09;4949266;28;20401;-80
2021/08/19 03:03:51;;;;;;;4.95;3.53;;;;;;;17.49;69.35;100230.66;4943967;29;20110;-80
2021/08/19 03:06:16;;;;;;;5.38;4.13;;;;;;;17.45;69.78;100227.25;4953917;28;20042;-80
2021/08/19 03:08:42;;;;;;;4.95;3.75;;;;;;;17.46;69.67;100231.66;4967022;28;20413;-79
2021/08/19 03:11:07;;;;;;;5.57;4.30;;;;;;;17.50;69.66;100219.94;4967568;28;20039;-79
2021/08/19 03:13:32;;;;;;;5.38;3.88;;;;;;;17.56;69.39;100226.81;4963291;28;20035;-80
2021/08/19 03:15:58;;;;;;;4.22;3.38;;;;;;;17.56;69.04;100224.16;4965312;28;20042;-79
2021/08/19 03:18:23;;;;;;;5.75;4.00;;;;;;;17.59;69.03;100226.69;4945638;29;20035;-80
2021/08/19 03:20:48;;;;;;;5.70;4.20;;;;;;;17.56;69.04;100231.28;4966150;28;20027;-80
2021/08/19 03:23:14;;;;;;;5.10;3.70;;;;;;;17.54;69.27;100228.69;4945476;28;20035;-80
2021/08/19 03:25:39;;;;;;;5.35;4.22;;;;;;;17.58;69.12;100230.31;4965759;28;20073;-80
2021/08/19 03:28:07;;;;;;;7.22;4.53;;;;;;;17.59;68.89;100228.50;4966160;28;20043;-80
2021/08/19 03:30:33;;;;;;;6.15;4.15;;;;;;;17.60;69.01;100230.22;4947911;28;20043;-80
2021/08/19 03:32:59;;;;;;;7.78;4.47;;;;;;;17.60;68.68;100233.75;4948190;28;20090;-80
2021/08/19 03:35:24;;;;;;;5.85;4.30;;;;;;;17.62;68.93;100228.38;4964786;28;20066;-80
2021/08/19 03:37:50;;;;;;;6.18;4.75;;;;;;;17.57;69.48;100230.34;4964283;28;20417;-79
2021/08/19 03:40:15;;;;;;;5.07;4.35;;;;;;;17.58;69.21;100234.75;4964795;28;20042;-79
2021/08/19 03:42:40;;;;;;;6.28;5.00;;;;;;;17.56;68.81;100226.81;4963468;28;20039;-79
2021/08/19 03:45:08;;;;;;;7.57;4.60;;;;;;;17.58;68.77;100232.97;4965258;28;20444;-79
2021/08/19 03:47:33;;;;;;;6.97;4.85;;;;;;;17.63;68.96;100231.00;4945545;29;20039;-80
2021/08/19 03:49:59;;;;;;;5.25;4.75;;;;;;;17.54;68.96;100231.34;4966140;28;20035;-79
2021/08/19 03:52:24;;;;;;;6.13;4.88;;;;;;;17.48;69.44;100227.13;4962102;28;20054;-80
2021/08/19 03:54:50;;;;;;;7.05;4.38;;;;;;;17.48;69.21;100228.94;4963352;28;20039;-80
2021/08/19 03:57:15;;;;;;;7.90;4.60;;;;;;;17.45;69.11;100229.91;4964817;28;20051;-80
2021/08/19 03:59:41;;;;;;;6.40;4.57;;;;;;;17.42;69.17;100235.38;4963886;28;20050;-79
2021/08/19 04:02:06;;;;;;;6.95;4.68;;;;;;;17.49;69.24;100231.53;4952364;28;20043;-80
2021/08/19 04:04:31;;;;;;;5.57;4.55;;;;;;;17.51;69.10;100236.81;4948978;28;20038;-79
2021/08/19 04:06:57;;;;;;;6.40;4.57;;;;;;;17.50;69.03;100243.06;4949778;28;20409;-79
2021/08/19 04:09:22;;;;;;;6.32;4.03;;;;;;;17.55;69.08;100240.22;4967236;28;20413;-80
2021/08/19 04:11:47;;;;;;;6.65;4.18;;;;;;;17.59;69.15;100236.50;4969987;28;20046;-80
2021/08/19 04:14:13;;;;;;;6.38;4.32;;;;;;;17.63;68.58;100233.66;4976328;28;20038;-79
2021/08/19 04:16:38;;;;;;;5.38;3.90;;;;;;;17.64;68.89;100240.72;4958055;28;20039;-79
2021/08/19 04:19:03;;;;;;;6.80;4.18;;;;;;;17.72;68.48;100235.94;4952485;28;20404;-79
2021/08/19 04:21:29;;;;;;;5.07;4.00;;;;;;;17.74;68.39;100243.91;4975049;28;20058;-79
2021/08/19 04:23:54;;;;;;;5.60;4.50;;;;;;;17.75;68.41;100237.63;4961550;28;20046;-80
2021/08/19 04:26:20;;;;;;;4.95;4.30;;;;;;;17.78;68.13;100240.16;4972792;28;20568;-80
2021/08/19 04:28:45;;;;;;;8.20;5.18;;;;;;;17.77;68.17;100237.56;4974016;28;20043;-79
2021/08/19 04:31:10;;;;;;;6.25;4.38;;;;;;;17.86;68.13;100240.75;4975732;28;20039;-79
2021/08/19 04:33:36;;;;;;;5.57;3.78;;;;;;;17.83;68.10;100242.69;4959716;28;20035;-79
2021/08/19 04:36:01;;;;;;;5.03;3.88;;;;;;;17.82;68.07;100241.81;4958258;28;20114;-80
2021/08/19 04:38:27;;;;;;;5.75;3.90;;;;;;;17.81;67.70;100245.41;4959818;28;20047;-78
2021/08/19 04:40:52;;;;;;;6.13;4.70;;;;;;;17.75;68.24;100248.28;4972535;28;20035;-79
2021/08/19 04:43:18;;;;;;;6.05;3.95;;;;;;;17.84;68.03;100247.97;4946134;28;20041;-78
2021/08/19 04:45:43;;;;;;;5.60;4.15;;;;;;;17.88;67.56;100249.56;4976852;28;20055;-80
2021/08/19 04:48:08;;;;;;;5.50;4.13;;;;;;;17.89;67.72;100246.00;4959040;28;20038;-80
2021/08/19 04:50:34;;;;;;;6.07;4.20;;;;;;;17.92;67.83;100251.19;4971767;28;20062;-79
2021/08/19 04:52:59;;;;;;;6.15;3.90;;;;;;;17.92;67.71;100248.53;4971274;28;20053;-80
2021/08/19 04:55:24;;;;;;;8.00;4.40;;;;;;;17.93;67.35;100249.38;4971480;28;20054;-79
2021/08/19 04:57:49;;;;;;;5.80;4.32;;;;;;;17.95;67.64;100244.88;4967942;28;20038;-79
2021/08/19 05:00:15;;;;;;;5.93;3.83;;;;;;;17.98;67.56;100246.53;4971285;28;20089;-79
2021/08/19 05:02:40;;;;;;;5.55;4.00;;;;;;;18.00;67.24;100247.31;4968783;28;20031;-79
2021/08/19 05:05:07;;;;;;;5.40;4.28;;;;;;;17.99;67.66;100249.13;4966125;28;20038;-79
2021/08/19 05:07:32;;;;;;;6.45;4.18;;;;;;;18.02;67.39;100245.47;4967771;28;20042;-80
2021/08/19 05:09:58;;;;;;;5.25;4.25;;;;;;;18.08;67.47;100246.09;4967065;28;20042;-80
2021/08/19 05:12:23;;;;;;;7.72;3.70;;;;;;;18.12;66.89;100255.69;4966667;28;20618;-79
2021/08/19 05:14:49;;;;;;;5.28;3.75;;;;;;;18.11;67.00;100255.78;4968693;28;20042;-79
2021/08/19 05:17:14;;;;;;;7.07;4.00;;;;;;;18.16;66.96;100249.31;4967679;28;20057;-79
2021/08/19 05:19:40;;;;;;;5.43;3.35;;;;;;;18.15;67.07;100252.03;4949331;28;20035;-79
2021/08/19 05:22:05;;;;;;;5.13;3.40;;;;;;;18.13;66.81;100259.22;4950635;28;20049;-79
2021/08/19 05:24:30;;;;;;;4.68;3.63;;;;;;;18.15;67.01;100258.22;4968542;28;20085;-79
2021/08/19 05:26:55;;;;;;;4.55;3.53;;;;;;;18.17;66.71;100259.03;4964478;28;20122;-79
2021/08/19 05:29:21;;;;;;;11.63;6.18;;;;;;;18.22;66.75;100258.84;4968395;28;20121;-79
2021/08/19 05:31:46;;;;;;;6.95;4.00;;;;;;;18.29;66.34;100262.16;4965401;28;20071;-79
2021/08/19 05:34:11;;;;;;;17.17;7.93;;;;;;;18.27;66.97;100272.03;4969409;28;20086;-79
2021/08/19 05:36:37;;;;;;;10.13;5.50;;;;;;;18.28;66.46;100266.59;4950813;28;20106;-79
2021/08/19 05:39:04;;;;;;;5.60;3.97;;;;;;;18.26;66.57;100270.28;4952030;28;20037;-78
2021/08/19 05:41:29;;;;;;;6.10;4.45;;;;;;;18.30;66.66;100270.09;4950557;28;20118;-79
2021/08/19 05:43:55;;;;;;;4.30;3.42;;;;;;;18.34;66.59;100269.03;4967474;28;20073;-79
2021/08/19 05:46:20;;;;;;;6.53;3.88;;;;;;;18.30;66.85;100272.75;4950991;28;20082;-80
2021/08/19 05:48:45;;;;;;;5.45;3.90;;;;;;;18.34;66.51;100270.84;4965016;28;20035;-79
2021/08/19 05:51:11;;;;;;;4.80;3.40;;;;;;;18.37;66.42;100273.38;4967028;28;20039;-79
2021/08/19 05:53:37;;;;;;;5.35;3.58;;;;;;;18.33;66.23;100271.75;4947809;28;20027;-79
2021/08/19 05:56:02;;;;;;;8.23;3.88;;;;;;;18.33;66.48;100275.28;4967490;28;20578;-79
2021/08/19 05:58:27;;;;;;;4.03;3.15;;;;;;;18.35;66.59;100270.75;4947600;29;20042;-80
2021/08/19 06:00:53;;;;;;;5.47;3.25;;;;;;;18.42;66.20;100278.50;4970196;28;20034;-80
2021/08/19 06:03:22;;;;;;;6.57;3.33;;;;;;;18.47;66.42;100282.75;4964927;28;20086;-79
2021/08/19 06:05:48;;;;;;;4.78;3.30;;;;;;;18.62;65.68;100283.88;4964900;28;20043;-79
2021/08/19 06:08:14;;;;;;;5.55;3.40;;;;;;;18.61;65.62;100283.00;4967316;28;20034;-79
2021/08/19 06:10:39;;;;;;;6.13;3.00;;;;;;;18.72;65.23;100284.34;4949399;28;20535;-80
2021/08/19 06:13:05;;;;;;;4.15;2.83;;;;;;;18.80;65.39;100284.91;4966633;28;20039;-79
2021/08/19 06:15:30;;;;;;;4.55;3.20;;;;;;;18.87;64.80;100289.06;4966500;28;20121;-80
2021/08/19 06:17:56;;;;;;;4.45;2.90;;;;;;;18.81;65.20;100298.22;4970498;28;20062;-80
2021/08/19 06:20:21;;;;;;;5.20;3.03;;;;;;;18.88;64.96;100284.56;4972332;28;20038;-78
2021/08/19 06:22:46;;;;;;;6.35;3.13;;;;;;;18.91;64.88;100295.13;4971538;28;20031;-79
2021/08/19 06:25:12;;;;;;;5.30;3.70;;;;;;;18.87;64.11;100294.41;4946908;29;20094;-79
2021/08/19 06:27:38;;;;;;;4.65;3.30;;;;;;;18.85;64.48;100290.06;4968168;28;20035;-79
2021/08/19 06:30:05;;;;;;;5.07;3.30;;;;;;;18.75;65.12;100290.44;4964413;28;20402;-79
2021/08/19 06:32:31;;;;;;;9.02;3.80;;;;;;;18.70;64.95;100289.75;4948990;28;20046;-79
2021/08/19 06:34:56;;;;;;;6.35;3.28;;;;;;;18.64;65.05;100295.38;4965041;28;20037;-79
2021/08/19 06:37:21;;;;;;;5.07;3.45;;;;;;;18.73;65.51;100297.66;4948771;28;20038;-79
2021/08/19 06:39:47;;;;;;;4.22;2.85;;;;;;;18.76;64.74;100296.69;4944958;29;20105;-80
2021/08/19 06:42:12;;;;;;;5.70;4.28;;;;;;;18.74;65.44;100282.47;4955411;28;20035;-79
2021/08/19 06:44:37;;;;;;;4.60;3.40;;;;;;;18.89;64.70;100287.19;4965951;28;20089;-79
2021/08/19 06:47:03;;;;;;;5.03;3.00;;;;;;;18.97;64.80;100293.06;4966580;28;20035;-79
2021/08/19 06:49:28;;;;;;;4.70;3.00;;;;;;;19.12;64.33;100290.63;4966366;28;20031;-80
2021/08/19 06:51:54;;;;;;;4.43;3.15;;;;;;;19.18;63.81;100288.56;4967767;28;20038;-80
2021/08/19 06:54:19;;;;;;;6.13;3.28;;;;;;;19.11;63.41;100286.22;4964519;28;20524;-79
2021/08/19 06:56:44;;;;;;;4.93;3.35;;;;;;;19.12;64.22;100293.28;4967258;28;20486;-79
2021/08/19 06:59:09;;;;;;;5.90;3.53;;;;;;;19.25;63.58;100283.78;4964562;28;20047;-79
2021/08/19 07:01:35;;;;;;;5.85;3.90;;;;;;;19.30;63.37;100288.91;4967693;28;20089;-79
2021/08/19 07:04:00;;;;;;;8.88;4.25;;;;;;;19.34;63.00;100287.84;4947674;28;20098;-80
2021/08/19 07:06:25;;;;;;;10.18;4.25;;;;;;;19.44;62.97;100286.44;4933923;28;20034;-79
2021/08/19 07:08:51;;;;;;;7.32;4.60;;;;;;;19.57;63.21;100294.78;4944319;29;20031;-80
2021/08/19 07:11:16;;;;;;;8.98;5.97;;;;;;;19.64;62.18;100294.41;4947633;28;20042;-79
2021/08/19 07:13:41;;;;;;;5.70;4.18;;;;;;;19.70;62.18;100290.59;4966142;28;20519;-79
2021/08/19 07:16:07;;;;;;;6.85;5.28;;;;;;;19.61;62.11;100297.25;4964887;28;20553;-79
2021/08/19 07:18:32;;;;;;;7.25;4.88;;;;;;;19.68;61.70;100308.56;4965457;28;20097;-80
2021/08/19 07:20:58;;;;;;;6.43;4.68;;;;;;;19.60;62.20;100294.66;4946354;29;20122;-79
2021/08/19 07:23:24;;;;;;;5.50;3.97;;;;;;;19.45;62.91;100297.09;4965931;28;20062;-79
2021/08/19 07:25:49;;;;;;;8.07;4.60;;;;;;;19.32;62.69;100301.28;4964386;28;20112;-80
2021/08/19 07:28:14;;;;;;;6.28;4.20;;;;;;;19.29;63.05;100301.44;4946701;29;20023;-80
2021/08/19 07:30:40;;;;;;;7.47;5.07;;;;;;;19.42;63.29;100302.59;4959131;28;20101;-80
2021/08/19 07:33:05;;;;;;;5.68;4.43;;;;;;;19.56;62.87;100303.75;4967169;28;20497;-79
2021/08/19 07:35:31;;;;;;;5.70;4.25;;;;;;;19.47;62.42;100294.38;4963744;28;20039;-79
2021/08/19 07:37:57;;;;;;;6.88;4.80;;;;;;;19.54;62.55;100306.50;4952816;28;20405;-79
2021/08/19 07:40:28;;;;;;;8.10;4.90;;;;;;;19.69;62.05;100303.13;4947560;29;20054;-80
2021/08/19 07:42:54;;;;;;;9.38;5.90;;;;;;;19.64;63.08;100307.81;4968378;28;20659;-79
2021/08/19 07:45:21;;;;;;;7.90;5.85;;;;;;;19.70;62.27;100310.25;4950926;28;20050;-80
2021/08/19 07:47:46;;;;;;;7.78;5.10;;;;;;;19.64;62.46;100310.47;4953726;28;20058;-79
2021/08/19 07:50:12;;;;;;;8.43;5.60;;;;;;;19.38;63.28;100319.72;4949557;29;20031;-80
2021/08/19 07:52:38;;;;;;;6.30;3.97;;;;;;;19.22;63.90;100316.88;4970757;28;20449;-80
2021/08/19 07:55:06;;;;;;;7.40;4.13;;;;;;;19.08;64.65;100324.66;4948971;29;20098;-79
2021/08/19 07:57:45;;;;;;;5.20;4.07;;;;;;;19.11;65.20;100324.53;4952234;28;20035;-80
2021/08/19 08:00:11;;;;;;;8.68;5.50;;;;;;;18.90;66.18;100331.69;4968917;28;20045;-79
2021/08/19 08:02:36;;;;;;;6.82;5.25;;;;;;;19.08;66.27;100324.66;4966512;28;20043;-79
2021/08/19 08:05:01;;;;;;;10.77;6.72;;;;;;;19.17;66.17;100326.91;4948227;29;20094;-79
2021/08/19 08:07:28;;;;;;;7.55;6.53;;;;;;;19.07;67.54;100327.41;4968577;28;20050;-79
2021/08/19 08:09:53;;;;;;;11.48;8.00;;;;;;;19.31;66.14;100326.31;4964989;28;20060;-80
2021/08/19 08:12:18;;;;;;;7.70;6.45;;;;;;;19.36;66.77;100329.66;4965131;28;20379;-79
2021/08/19 08:14:44;;;;;;;9.88;6.75;;;;;;;19.40;66.92;100333.03;4968015;28;20552;-79
2021/08/19 08:17:09;;;;;;;8.35;6.03;;;;;;;19.39;67.01;100325.97;4946025;29;20476;-79
2021/08/19 08:19:35;;;;;;;6.28;5.32;;;;;;;19.39;67.01;100328.66;4966599;28;20506;-79
2021/08/19 08:22:00;;;;;;;7.13;5.85;;;;;;;19.47;66.86;100331.84;4950038;28;20085;-80
2021/08/19 08:24:26;;;;;;;8.65;5.95;;;;;;;19.58;66.85;100328.66;4966662;28;20122;-80
2021/08/19 08:26:51;;;;;;;8.40;5.35;;;;;;;19.73;66.25;100327.06;4949460;28;20035;-79
2021/08/19 08:29:19;;;;;;;7.65;5.88;;;;;;;19.85;65.99;100332.72;4970818;28;20118;-79
2021/08/19 08:31:45;;;;;;;9.00;5.05;;;;;;;19.92;65.21;100333.31;4967514;28;20119;-79
2021/08/19 08:34:10;;;;;;;6.47;4.90;;;;;;;20.01;65.11;100332.84;4947797;28;20035;-79
2021/08/19 08:36:36;;;;;;;6.65;5.47;;;;;;;19.96;65.11;100340.25;4968083;28;20122;-79
2021/08/19 08:39:03;;;;;;;7.93;6.45;;;;;;;19.92;65.87;100339.53;4964583;28;20043;-79
2021/08/19 08:41:29;;;;;;;6.47;5.05;;;;;;;19.95;64.99;100349.22;4950564;28;20034;-80
2021/08/19 08:43:54;;;;;;;8.45;6.43;;;;;;;19.89;65.45;100352.22;4965233;28;20050;-80
2021/08/19 08:46:22;;;;;;;7.07;4.50;;;;;;;20.05;65.49;100352.34;4967031;28;20078;-80
2021/08/19 08:48:50;;;;;;;6.95;5.30;;;;;;;20.10;64.83;100351.19;4960526;28;20046;-80
2021/08/19 08:51:16;;;;;;;6.10;4.20;;;;;;;20.02;64.79;100356.03;4966698;28;20050;-80
2021/08/19 08:56:15;;;;;;;8.43;4.97;;;;;;;19.91;64.26;100358.34;4986454;28;20066;-79
2021/08/19 08:58:40;;;;;;;6.55;5.07;;;;;;;19.86;64.73;100360.41;4987777;28;20038;-79
2021/08/19 09:01:05;;;;;;;6.68;4.22;;;;;;;20.01;63.71;100361.47;4983074;28;20134;-79
2021/08/19 09:03:31;;;;;;;10.75;4.10;;;;;;;20.03;63.84;100354.22;4986632;28;20066;-79
2021/08/19 09:05:56;;;;;;;6.63;4.28;;;;;;;20.04;62.82;100354.16;4969935;28;20042;-80
2021/08/19 09:08:25;;;;;;;11.07;6.75;;;;;;;20.29;62.83;100358.31;4985914;28;20062;-79
2021/08/19 09:10:52;;;;;;;11.45;6.13;;;;;;;20.46;61.84;100355.69;4985824;28;20043;-80
2021/08/19 09:13:26;;;;;;;5.93;4.50;;;;;;;20.72;61.00;100356.19;4985054;28;20568;-80
2021/08/19 09:15:52;;;;;;;7.35;4.28;;;;;;;20.76;61.00;100355.97;5001707;23;20046;-73
2021/08/19 09:18:34;;;;;;;7.07;5.80;;;;;;;20.88;61.26;100354.47;4993077;28;20078;-73
2021/08/19 09:21:01;;;;;;;7.18;4.70;;;;;;;21.08;59.87;100353.41;4990004;28;20038;-74
2021/08/19 09:23:27;;;;;;;6.70;4.50;;;;;;;21.26;59.59;100365.00;4992818;28;20129;-74
2021/08/19 09:25:53;;;;;;;5.50;3.65;;;;;;;21.40;59.07;100351.72;4958642;28;20518;-74
2021/08/19 09:28:22;;;;;;;5.57;3.83;;;;;;;21.66;57.95;100349.44;4966366;28;20046;-74
2021/08/19 09:30:52;;;;;;;8.75;5.40;;;;;;;21.75;57.68;100351.63;4971467;28;20047;-74
2021/08/19 09:33:21;;;;;;;5.90;4.30;;;;;;;21.79;56.73;100347.81;4964981;28;20046;-74
2021/08/19 09:35:48;;;;;;;5.07;3.30;;;;;;;22.01;56.01;100342.13;4968906;28;20038;-74
2021/08/19 09:38:19;;;;;;;5.70;3.33;;;;;;;21.94;56.22;100345.22;4961936;28;20130;-74
2021/08/19 09:41:04;;;;;;;7.25;4.43;;;;;;;21.78;55.29;100334.47;4964680;28;20449;-74
2021/08/19 09:43:39;;;;;;;6.20;4.32;;;;;;;22.03;55.38;100348.28;4944582;28;20047;-73
2021/08/19 09:46:05;;;;;;;6.70;4.40;;;;;;;22.24;55.21;100335.47;4963424;28;20486;-74
2021/08/19 09:48:31;;;;;;;7.88;3.72;;;;;;;22.45;54.76;100335.16;4963701;28;20051;-74
2021/08/19 09:51:19;;;;;;;5.32;3.83;;;;;;;22.33;54.81;100334.06;4965079;28;20097;-74
2021/08/19 09:53:50;;;;;;;5.63;3.88;;;;;;;22.37;55.14;100329.34;4969112;28;20042;-75
2021/08/19 09:56:30;;;;;;;6.68;5.30;;;;;;;22.57;54.86;100325.50;4947619;28;20042;-74
2021/08/19 09:59:22;;;;;;;6.35;4.53;;;;;;;22.40;54.52;100329.16;4964800;28;20070;-74
2021/08/19 10:01:52;;;;;;;11.02;6.47;;;;;;;22.30;55.79;100328.84;4963286;28;20046;-74
2021/08/19 10:04:19;;;;;;;6.15;3.97;;;;;;;22.19;56.14;100331.28;4964103;28;20050;-75
2021/08/19 10:06:45;;;;;;;7.70;4.35;;;;;;;21.93;56.82;100335.41;4942038;29;20137;-74
2021/08/19 10:09:11;;;;;;;8.55;5.30;;;;;;;21.79;56.61;100326.31;4962953;28;20039;-74
2021/08/19 10:11:37;;;;;;;6.38;3.72;;;;;;;21.58;57.69;100324.84;4964889;28;20134;-74
2021/08/19 10:14:03;;;;;;;6.93;4.22;;;;;;;21.34;57.98;100322.50;4962854;28;20540;-73
2021/08/19 10:16:34;;;;;;;5.50;3.83;;;;;;;21.24;58.72;100327.50;4963146;28;20508;-73
2021/08/19 10:19:05;;;;;;;8.82;5.60;;;;;;;21.10;59.33;100330.06;4943523;29;20513;-74
2021/08/19 10:21:31;;;;;;;6.35;4.65;;;;;;;20.90;60.01;100327.56;4962050;28;20031;-74
2021/08/19 10:23:58;;;;;;;5.72;4.43;;;;;;;20.74;60.82;100338.22;4963977;28;20043;-74
2021/08/19 10:26:23;;;;;;;7.03;4.60;;;;;;;20.69;61.01;100340.25;4961526;28;20042;-74
2021/08/19 10:28:52;;;;;;;6.43;4.85;;;;;;;20.87;60.23;100333.09;4963497;28;20042;-73
2021/08/19 10:31:43;;;;;;;8.25;6.00;;;;;;;20.80;60.32;100335.19;4967892;28;20042;-74
2021/08/19 10:34:13;;;;;;;7.78;4.38;;;;;;;21.03;59.32;100336.69;4966156;28;20043;-74
2021/08/19 10:36:38;;;;;;;5.50;3.50;;;;;;;21.07;58.35;100332.06;4962181;28;20039;-74
2021/08/19 10:39:18;;;;;;;5.75;3.53;;;;;;;21.04;59.47;100334.88;4962948;28;20417;-74
2021/08/19 10:41:44;;;;;;;6.60;3.88;;;;;;;21.12;58.51;100338.03;4967064;28;20042;-74
2021/08/19 10:44:11;;;;;;;5.85;3.30;;;;;;;21.32;57.75;100334.28;4963792;28;20030;-74
2021/08/19 10:46:49;;;;;;;7.55;4.28;;;;;;;21.44;58.30;100329.16;4966810;28;20042;-74
2021/08/19 10:49:30;;;;;;;6.00;3.35;;;;;;;21.45;57.11;100330.88;4963869;28;20085;-74
2021/08/19 10:52:16;;;;;;;5.53;3.70;;;;;;;21.25;57.82;100336.44;4962063;28;20118;-74
2021/08/19 10:54:43;;;;;;;6.22;4.00;;;;;;;21.55;56.44;100336.59;4960904;28;20097;-74
2021/08/19 10:57:25;;;;;;;7.18;4.20;;;;;;;21.79;56.35;100329.00;4963508;28;20038;-74
2021/08/19 10:59:58;;;;;;;5.63;3.72;;;;;;;22.05;55.76;100330.22;4943258;29;20529;-74
2021/08/19 11:02:43;;;;;;;5.05;3.50;;;;;;;22.50;54.01;100325.00;4961233;28;20035;-73
2021/08/19 11:05:11;;;;;;;6.28;4.45;;;;;;;22.82;53.77;100330.25;4960847;28;20042;-74
2021/08/19 11:08:02;;;;;;;6.85;4.00;;;;;;;23.12;52.99;100322.19;4964516;28;20130;-74
2021/08/19 11:10:31;;;;;;;4.88;3.22;;;;;;;22.98;53.06;100341.88;4964373;28;20039;-74
2021/08/19 11:13:07;;;;;;;5.45;3.75;;;;;;;22.85;52.55;100322.91;4964945;28;20039;-74
2021/08/19 11:15:36;;;;;;;5.68;3.50;;;;;;;22.98;52.55;100325.75;4966108;28;20043;-74
2021/08/19 11:18:02;;;;;;;5.18;3.95;;;;;;;22.90;53.22;100326.19;4967052;28;20074;-74
2021/08/19 11:20:30;;;;;;;9.23;5.13;;;;;;;22.80;53.07;100321.44;4965393;28;20441;-74
2021/08/19 11:23:07;;;;;;;4.63;3.33;;;;;;;22.78;53.50;100328.72;4967671;28;20117;-74
2021/08/19 11:25:35;;;;;;;7.13;4.10;;;;;;;22.78;53.39;100331.44;4965345;28;20405;-74